sensor_id;sensor_type;location;lat;lon;timestamp;P1;durP1;ratioP1;P2;durP2;ratioP2
56130;SDS011;42000;44.774;20.506;2022-12-18T00:01:48;52.00;;;24.98;;
56130;SDS011;42000;44.774;20.506;2022-12-18T00:04:21;47.47;;;23.92;;
56130;SDS011;42000;44.774;20.506;2022-12-18T00:06:47;46.75;;;22.48;;
56130;SDS011;42000;44.774;20.506;2022-12-18T00:09:14;46.83;;;21.48;;
56130;SDS011;42000;44.774;20.506;2022-12-18T00:11:40;37.03;;;16.80;;
56130;SDS011;42000;44.774;20.506;2022-12-18T00:14:06;42.80;;;19.70;;
56130;SDS011;42000;44.774;20.506;2022-12-18T00:16:32;40.80;;;20.35;;
56130;SDS011;42000;44.774;20.506;2022-12-18T00:19:00;45.67;;;20.48;;
56130;SDS011;42000;44.774;20.506;2022-12-18T00:21:27;39.58;;;18.10;;
56130;SDS011;42000;44.774;20.506;2022-12-18T00:23:54;45.60;;;20.05;;
56130;SDS011;42000;44.774;20.506;2022-12-18T00:26:24;41.65;;;19.67;;
56130;SDS011;42000;44.774;20.506;2022-12-18T00:28:50;42.78;;;20.08;;
56130;SDS011;42000;44.774;20.506;2022-12-18T00:31:18;43.90;;;21.98;;
56130;SDS011;42000;44.774;20.506;2022-12-18T00:33:45;44.15;;;18.58;;
56130;SDS011;42000;44.774;20.506;2022-12-18T00:36:18;43.13;;;20.70;;
56130;SDS011;42000;44.774;20.506;2022-12-18T00:38:45;44.17;;;21.05;;
56130;SDS011;42000;44.774;20.506;2022-12-18T00:41:12;42.88;;;20.48;;
56130;SDS011;42000;44.774;20.506;2022-12-18T00:43:38;43.08;;;20.13;;
56130;SDS011;42000;44.774;20.506;2022-12-18T00:46:04;43.35;;;20.35;;
56130;SDS011;42000;44.774;20.506;2022-12-18T00:48:31;41.38;;;18.00;;
56130;SDS011;42000;44.774;20.506;2022-12-18T00:50:57;41.50;;;20.23;;
56130;SDS011;42000;44.774;20.506;2022-12-18T07:12:19;51.55;;;20.25;;
56130;SDS011;42000;44.774;20.506;2022-12-18T07:14:45;51.92;;;23.38;;
56130;SDS011;42000;44.774;20.506;2022-12-18T07:17:11;56.35;;;24.02;;
56130;SDS011;42000;44.774;20.506;2022-12-18T07:19:37;53.70;;;24.45;;
56130;SDS011;42000;44.774;20.506;2022-12-18T07:22:03;54.50;;;24.02;;
56130;SDS011;42000;44.774;20.506;2022-12-18T07:24:32;55.05;;;24.42;;
56130;SDS011;42000;44.774;20.506;2022-12-18T07:26:58;56.35;;;23.38;;
56130;SDS011;42000;44.774;20.506;2022-12-18T07:29:24;52.80;;;23.83;;
56130;SDS011;42000;44.774;20.506;2022-12-18T07:31:50;59.15;;;25.58;;
56130;SDS011;42000;44.774;20.506;2022-12-18T07:34:16;59.35;;;25.98;;
56130;SDS011;42000;44.774;20.506;2022-12-18T07:36:42;55.90;;;24.50;;
56130;SDS011;42000;44.774;20.506;2022-12-18T07:39:10;55.70;;;23.17;;
56130;SDS011;42000;44.774;20.506;2022-12-18T07:41:36;52.75;;;22.65;;
56130;SDS011;42000;44.774;20.506;2022-12-18T07:44:02;53.75;;;21.25;;
56130;SDS011;42000;44.774;20.506;2022-12-18T07:46:28;49.67;;;23.15;;
56130;SDS011;42000;44.774;20.506;2022-12-18T07:48:54;56.88;;;24.55;;
56130;SDS011;42000;44.774;20.506;2022-12-18T07:51:20;53.38;;;23.95;;
56130;SDS011;42000;44.774;20.506;2022-12-18T07:53:46;52.78;;;23.80;;
56130;SDS011;42000;44.774;20.506;2022-12-18T07:56:13;59.15;;;23.98;;
56130;SDS011;42000;44.774;20.506;2022-12-18T07:58:39;55.92;;;25.40;;
56130;SDS011;42000;44.774;20.506;2022-12-18T08:01:06;60.17;;;26.63;;
56130;SDS011;42000;44.774;20.506;2022-12-18T08:03:32;73.82;;;33.28;;
56130;SDS011;42000;44.774;20.506;2022-12-18T08:06:01;61.17;;;27.10;;
56130;SDS011;42000;44.774;20.506;2022-12-18T08:08:28;65.07;;;28.25;;
56130;SDS011;42000;44.774;20.506;2022-12-18T08:10:54;70.55;;;31.35;;
56130;SDS011;42000;44.774;20.506;2022-12-18T08:13:21;74.72;;;31.38;;
56130;SDS011;42000;44.774;20.506;2022-12-18T08:15:55;62.22;;;28.45;;
56130;SDS011;42000;44.774;20.506;2022-12-18T08:18:21;70.95;;;29.88;;
56130;SDS011;42000;44.774;20.506;2022-12-18T08:20:48;66.10;;;29.77;;
56130;SDS011;42000;44.774;20.506;2022-12-18T08:23:14;71.88;;;30.90;;
56130;SDS011;42000;44.774;20.506;2022-12-18T08:25:40;59.00;;;27.17;;
56130;SDS011;42000;44.774;20.506;2022-12-18T08:28:06;68.30;;;29.67;;
56130;SDS011;42000;44.774;20.506;2022-12-18T08:30:32;63.83;;;29.35;;
56130;SDS011;42000;44.774;20.506;2022-12-18T08:32:58;66.75;;;30.13;;
56130;SDS011;42000;44.774;20.506;2022-12-18T08:35:24;62.92;;;30.00;;
56130;SDS011;42000;44.774;20.506;2022-12-18T08:37:50;67.53;;;31.75;;
56130;SDS011;42000;44.774;20.506;2022-12-18T08:40:16;69.20;;;31.33;;
56130;SDS011;42000;44.774;20.506;2022-12-18T08:42:42;61.65;;;28.52;;
56130;SDS011;42000;44.774;20.506;2022-12-18T08:45:27;62.90;;;27.42;;
56130;SDS011;42000;44.774;20.506;2022-12-18T08:47:53;60.75;;;26.85;;
56130;SDS011;42000;44.774;20.506;2022-12-18T08:50:19;63.83;;;27.48;;
56130;SDS011;42000;44.774;20.506;2022-12-18T08:52:46;59.05;;;24.90;;
56130;SDS011;42000;44.774;20.506;2022-12-18T08:55:12;67.60;;;27.60;;
56130;SDS011;42000;44.774;20.506;2022-12-18T08:57:38;60.83;;;26.50;;
56130;SDS011;42000;44.774;20.506;2022-12-18T09:00:04;57.83;;;26.45;;
56130;SDS011;42000;44.774;20.506;2022-12-18T09:02:30;62.63;;;27.05;;
56130;SDS011;42000;44.774;20.506;2022-12-18T09:04:56;60.00;;;27.48;;
56130;SDS011;42000;44.774;20.506;2022-12-18T09:07:22;60.20;;;27.23;;
56130;SDS011;42000;44.774;20.506;2022-12-18T09:09:48;60.47;;;27.40;;
56130;SDS011;42000;44.774;20.506;2022-12-18T09:12:14;60.00;;;25.98;;
56130;SDS011;42000;44.774;20.506;2022-12-18T09:14:40;62.35;;;27.50;;
56130;SDS011;42000;44.774;20.506;2022-12-18T09:17:06;63.95;;;27.02;;
56130;SDS011;42000;44.774;20.506;2022-12-18T09:19:32;59.10;;;25.90;;
56130;SDS011;42000;44.774;20.506;2022-12-18T09:21:58;58.22;;;25.90;;
56130;SDS011;42000;44.774;20.506;2022-12-18T09:24:25;50.70;;;24.25;;
56130;SDS011;42000;44.774;20.506;2022-12-18T09:26:53;49.95;;;24.00;;
56130;SDS011;42000;44.774;20.506;2022-12-18T09:29:20;55.20;;;25.77;;
56130;SDS011;42000;44.774;20.506;2022-12-18T09:31:46;54.00;;;24.73;;
56130;SDS011;42000;44.774;20.506;2022-12-18T09:34:12;57.47;;;25.77;;
56130;SDS011;42000;44.774;20.506;2022-12-18T09:36:38;59.03;;;26.63;;
56130;SDS011;42000;44.774;20.506;2022-12-18T09:39:04;58.45;;;27.33;;
56130;SDS011;42000;44.774;20.506;2022-12-18T09:41:41;56.17;;;26.48;;
56130;SDS011;42000;44.774;20.506;2022-12-18T09:46:38;63.60;;;29.85;;
56130;SDS011;42000;44.774;20.506;2022-12-18T09:49:07;56.92;;;26.33;;
56130;SDS011;42000;44.774;20.506;2022-12-18T09:51:47;55.88;;;26.27;;
56130;SDS011;42000;44.774;20.506;2022-12-18T09:54:16;64.72;;;28.45;;
56130;SDS011;42000;44.774;20.506;2022-12-18T09:56:44;62.65;;;29.17;;
56130;SDS011;42000;44.774;20.506;2022-12-18T10:01:55;57.60;;;26.42;;
56130;SDS011;42000;44.774;20.506;2022-12-18T10:04:21;64.03;;;28.05;;
56130;SDS011;42000;44.774;20.506;2022-12-18T10:09:27;54.47;;;26.60;;
56130;SDS011;42000;44.774;20.506;2022-12-18T10:14:31;57.05;;;27.05;;
56130;SDS011;42000;44.774;20.506;2022-12-18T10:19:29;56.15;;;26.90;;
56130;SDS011;42000;44.774;20.506;2022-12-18T10:22:02;57.17;;;26.98;;
56130;SDS011;42000;44.774;20.506;2022-12-18T10:24:36;60.45;;;27.17;;
56130;SDS011;42000;44.774;20.506;2022-12-18T10:27:09;61.92;;;26.92;;
56130;SDS011;42000;44.774;20.506;2022-12-18T10:32:02;60.53;;;25.98;;
56130;SDS011;42000;44.774;20.506;2022-12-18T10:34:28;56.90;;;26.38;;
56130;SDS011;42000;44.774;20.506;2022-12-18T10:36:54;49.67;;;22.10;;
56130;SDS011;42000;44.774;20.506;2022-12-18T10:39:24;57.50;;;27.05;;
56130;SDS011;42000;44.774;20.506;2022-12-18T10:44:23;58.17;;;26.63;;
56130;SDS011;42000;44.774;20.506;2022-12-18T10:47:02;53.85;;;25.70;;
56130;SDS011;42000;44.774;20.506;2022-12-18T10:49:29;58.22;;;26.38;;
56130;SDS011;42000;44.774;20.506;2022-12-18T10:52:16;56.70;;;25.65;;
56130;SDS011;42000;44.774;20.506;2022-12-18T10:54:47;57.22;;;26.50;;
56130;SDS011;42000;44.774;20.506;2022-12-18T10:57:36;60.45;;;26.52;;
56130;SDS011;42000;44.774;20.506;2022-12-18T11:00:13;54.17;;;23.60;;
56130;SDS011;42000;44.774;20.506;2022-12-18T11:02:45;57.47;;;26.95;;
56130;SDS011;42000;44.774;20.506;2022-12-18T11:05:33;61.50;;;26.60;;
56130;SDS011;42000;44.774;20.506;2022-12-18T11:07:58;57.58;;;25.88;;
56130;SDS011;42000;44.774;20.506;2022-12-18T11:10:31;52.92;;;25.23;;
56130;SDS011;42000;44.774;20.506;2022-12-18T11:13:19;56.83;;;25.58;;
56130;SDS011;42000;44.774;20.506;2022-12-18T11:15:44;56.10;;;25.23;;
56130;SDS011;42000;44.774;20.506;2022-12-18T11:20:43;59.58;;;26.70;;
56130;SDS011;42000;44.774;20.506;2022-12-18T11:23:15;60.50;;;27.38;;
56130;SDS011;42000;44.774;20.506;2022-12-18T11:25:41;61.85;;;27.70;;
56130;SDS011;42000;44.774;20.506;2022-12-18T11:28:36;67.65;;;30.33;;
56130;SDS011;42000;44.774;20.506;2022-12-18T11:33:34;56.60;;;27.48;;
56130;SDS011;42000;44.774;20.506;2022-12-18T11:36:02;63.47;;;28.13;;
56130;SDS011;42000;44.774;20.506;2022-12-18T11:38:31;63.47;;;27.58;;
56130;SDS011;42000;44.774;20.506;2022-12-18T11:40:59;64.40;;;28.30;;
56130;SDS011;42000;44.774;20.506;2022-12-18T11:43:27;154.18;;;60.78;;
56130;SDS011;42000;44.774;20.506;2022-12-18T11:45:55;91.03;;;38.25;;
56130;SDS011;42000;44.774;20.506;2022-12-18T11:48:26;87.72;;;38.08;;
56130;SDS011;42000;44.774;20.506;2022-12-18T11:50:54;101.53;;;44.55;;
56130;SDS011;42000;44.774;20.506;2022-12-18T11:53:21;64.55;;;28.88;;
56130;SDS011;42000;44.774;20.506;2022-12-18T11:55:54;68.97;;;29.17;;
56130;SDS011;42000;44.774;20.506;2022-12-18T12:11:20;67.18;;;31.45;;
56130;SDS011;42000;44.774;20.506;2022-12-18T12:19:45;67.45;;;29.40;;
56130;SDS011;42000;44.774;20.506;2022-12-18T12:22:10;67.32;;;28.83;;
56130;SDS011;42000;44.774;20.506;2022-12-18T12:24:42;87.60;;;37.60;;
56130;SDS011;42000;44.774;20.506;2022-12-18T12:29:49;85.05;;;36.08;;
56130;SDS011;42000;44.774;20.506;2022-12-18T12:40:07;72.95;;;30.95;;
56130;SDS011;42000;44.774;20.506;2022-12-18T12:45:23;73.88;;;31.85;;
56130;SDS011;42000;44.774;20.506;2022-12-18T12:47:52;66.68;;;29.50;;
56130;SDS011;42000;44.774;20.506;2022-12-18T12:50:19;74.47;;;32.60;;
56130;SDS011;42000;44.774;20.506;2022-12-18T12:52:46;71.72;;;32.08;;
56130;SDS011;42000;44.774;20.506;2022-12-18T12:55:31;70.93;;;31.20;;
56130;SDS011;42000;44.774;20.506;2022-12-18T13:00:34;53.90;;;24.17;;
56130;SDS011;42000;44.774;20.506;2022-12-18T13:03:08;69.80;;;32.22;;
56130;SDS011;42000;44.774;20.506;2022-12-18T13:10:37;69.95;;;31.23;;
56130;SDS011;42000;44.774;20.506;2022-12-18T13:20:41;68.30;;;32.53;;
56130;SDS011;42000;44.774;20.506;2022-12-18T13:25:58;66.65;;;29.15;;
56130;SDS011;42000;44.774;20.506;2022-12-18T13:36:41;69.28;;;30.10;;
56130;SDS011;42000;44.774;20.506;2022-12-18T13:41:40;71.57;;;30.05;;
56130;SDS011;42000;44.774;20.506;2022-12-18T13:44:10;68.47;;;30.83;;
56130;SDS011;42000;44.774;20.506;2022-12-18T13:46:43;71.25;;;31.70;;
56130;SDS011;42000;44.774;20.506;2022-12-18T13:51:35;76.18;;;34.13;;
56130;SDS011;42000;44.774;20.506;2022-12-18T13:56:49;74.63;;;33.00;;
56130;SDS011;42000;44.774;20.506;2022-12-18T14:01:45;64.88;;;30.40;;
56130;SDS011;42000;44.774;20.506;2022-12-18T14:04:16;66.43;;;28.63;;
56130;SDS011;42000;44.774;20.506;2022-12-18T14:06:43;73.13;;;31.77;;
56130;SDS011;42000;44.774;20.506;2022-12-18T14:09:12;74.40;;;32.20;;
56130;SDS011;42000;44.774;20.506;2022-12-18T14:11:39;68.90;;;29.17;;
56130;SDS011;42000;44.774;20.506;2022-12-18T14:14:05;69.80;;;31.05;;
56130;SDS011;42000;44.774;20.506;2022-12-18T14:16:32;70.53;;;32.25;;
56130;SDS011;42000;44.774;20.506;2022-12-18T14:18:59;70.00;;;31.38;;
56130;SDS011;42000;44.774;20.506;2022-12-18T14:21:26;64.85;;;27.90;;
56130;SDS011;42000;44.774;20.506;2022-12-18T14:26:34;66.03;;;26.52;;
56130;SDS011;42000;44.774;20.506;2022-12-18T14:29:01;65.05;;;28.38;;
56130;SDS011;42000;44.774;20.506;2022-12-18T14:31:28;64.75;;;24.98;;
56130;SDS011;42000;44.774;20.506;2022-12-18T14:33:55;56.50;;;25.48;;
56130;SDS011;42000;44.774;20.506;2022-12-18T14:36:25;58.65;;;26.23;;
56130;SDS011;42000;44.774;20.506;2022-12-18T14:38:52;64.75;;;28.38;;
56130;SDS011;42000;44.774;20.506;2022-12-18T14:41:19;65.93;;;28.05;;
56130;SDS011;42000;44.774;20.506;2022-12-18T14:43:50;71.68;;;30.20;;
56130;SDS011;42000;44.774;20.506;2022-12-18T14:48:51;61.35;;;27.70;;
56130;SDS011;42000;44.774;20.506;2022-12-18T14:51:18;80.45;;;34.40;;
56130;SDS011;42000;44.774;20.506;2022-12-18T14:56:28;70.35;;;31.38;;
56130;SDS011;42000;44.774;20.506;2022-12-18T15:01:21;77.60;;;29.88;;
56130;SDS011;42000;44.774;20.506;2022-12-18T15:03:49;67.63;;;29.77;;
56130;SDS011;42000;44.774;20.506;2022-12-18T15:06:16;82.15;;;36.83;;
56130;SDS011;42000;44.774;20.506;2022-12-18T15:08:42;66.10;;;30.27;;
56130;SDS011;42000;44.774;20.506;2022-12-18T15:13:52;90.50;;;38.10;;
56130;SDS011;42000;44.774;20.506;2022-12-18T15:16:19;96.93;;;39.65;;
56130;SDS011;42000;44.774;20.506;2022-12-18T15:18:45;93.13;;;38.17;;
56130;SDS011;42000;44.774;20.506;2022-12-18T15:21:16;111.95;;;42.15;;
56130;SDS011;42000;44.774;20.506;2022-12-18T15:26:09;90.10;;;39.85;;
56130;SDS011;42000;44.774;20.506;2022-12-18T15:28:39;90.57;;;38.72;;
56130;SDS011;42000;44.774;20.506;2022-12-18T15:33:37;90.05;;;37.05;;
56130;SDS011;42000;44.774;20.506;2022-12-18T15:36:04;98.95;;;41.08;;
56130;SDS011;42000;44.774;20.506;2022-12-18T15:38:30;92.32;;;40.33;;
56130;SDS011;42000;44.774;20.506;2022-12-18T15:40:56;86.07;;;36.38;;
56130;SDS011;42000;44.774;20.506;2022-12-18T15:43:23;83.35;;;34.55;;
56130;SDS011;42000;44.774;20.506;2022-12-18T15:46:20;92.95;;;37.17;;
56130;SDS011;42000;44.774;20.506;2022-12-18T15:48:46;95.80;;;38.20;;
56130;SDS011;42000;44.774;20.506;2022-12-18T15:53:41;102.00;;;43.58;;
56130;SDS011;42000;44.774;20.506;2022-12-18T15:56:11;84.38;;;36.45;;
56130;SDS011;42000;44.774;20.506;2022-12-18T15:58:56;80.82;;;33.50;;
56130;SDS011;42000;44.774;20.506;2022-12-18T16:01:22;85.50;;;34.80;;
56130;SDS011;42000;44.774;20.506;2022-12-18T16:03:49;75.97;;;32.42;;
56130;SDS011;42000;44.774;20.506;2022-12-18T16:06:15;94.72;;;40.65;;
56130;SDS011;42000;44.774;20.506;2022-12-18T16:08:41;126.75;;;56.78;;
56130;SDS011;42000;44.774;20.506;2022-12-18T16:11:26;79.68;;;33.75;;
56130;SDS011;42000;44.774;20.506;2022-12-18T16:14:21;78.05;;;33.75;;
56130;SDS011;42000;44.774;20.506;2022-12-18T16:16:49;79.65;;;36.10;;
56130;SDS011;42000;44.774;20.506;2022-12-18T16:19:16;66.88;;;29.02;;
56130;SDS011;42000;44.774;20.506;2022-12-18T16:21:42;100.35;;;40.63;;
56130;SDS011;42000;44.774;20.506;2022-12-18T16:24:18;102.45;;;42.28;;
56130;SDS011;42000;44.774;20.506;2022-12-18T16:26:44;84.82;;;35.40;;
56130;SDS011;42000;44.774;20.506;2022-12-18T16:29:10;142.25;;;62.92;;
56130;SDS011;42000;44.774;20.506;2022-12-18T16:31:37;105.90;;;46.85;;
56130;SDS011;42000;44.774;20.506;2022-12-18T16:34:09;98.07;;;40.92;;
56130;SDS011;42000;44.774;20.506;2022-12-18T16:36:35;102.00;;;43.75;;
56130;SDS011;42000;44.774;20.506;2022-12-18T16:39:04;91.05;;;38.65;;
56130;SDS011;42000;44.774;20.506;2022-12-18T16:41:30;102.95;;;44.10;;
56130;SDS011;42000;44.774;20.506;2022-12-18T16:43:57;105.03;;;44.70;;
56130;SDS011;42000;44.774;20.506;2022-12-18T16:46:23;99.28;;;41.47;;
56130;SDS011;42000;44.774;20.506;2022-12-18T16:48:49;96.38;;;38.97;;
56130;SDS011;42000;44.774;20.506;2022-12-18T16:51:15;96.25;;;39.15;;
56130;SDS011;42000;44.774;20.506;2022-12-18T16:53:41;95.45;;;39.92;;
56130;SDS011;42000;44.774;20.506;2022-12-18T16:56:07;115.18;;;46.33;;
56130;SDS011;42000;44.774;20.506;2022-12-18T16:58:33;104.13;;;42.30;;
56130;SDS011;42000;44.774;20.506;2022-12-18T17:00:59;101.00;;;43.65;;
56130;SDS011;42000;44.774;20.506;2022-12-18T17:03:25;78.38;;;32.60;;
56130;SDS011;42000;44.774;20.506;2022-12-18T17:05:51;67.13;;;29.77;;
56130;SDS011;42000;44.774;20.506;2022-12-18T17:08:17;62.03;;;27.45;;
56130;SDS011;42000;44.774;20.506;2022-12-18T17:10:44;86.20;;;37.25;;
56130;SDS011;42000;44.774;20.506;2022-12-18T17:13:10;66.90;;;29.90;;
56130;SDS011;42000;44.774;20.506;2022-12-18T17:15:36;82.07;;;33.55;;
56130;SDS011;42000;44.774;20.506;2022-12-18T17:18:02;82.03;;;34.35;;
56130;SDS011;42000;44.774;20.506;2022-12-18T17:20:31;85.60;;;37.30;;
56130;SDS011;42000;44.774;20.506;2022-12-18T17:22:57;70.25;;;31.42;;
56130;SDS011;42000;44.774;20.506;2022-12-18T17:25:23;97.82;;;37.70;;
56130;SDS011;42000;44.774;20.506;2022-12-18T17:27:49;80.57;;;33.63;;
56130;SDS011;42000;44.774;20.506;2022-12-18T17:30:16;91.07;;;37.90;;
56130;SDS011;42000;44.774;20.506;2022-12-18T17:32:42;83.50;;;34.13;;
56130;SDS011;42000;44.774;20.506;2022-12-18T17:35:08;84.70;;;37.55;;
56130;SDS011;42000;44.774;20.506;2022-12-18T17:37:34;86.28;;;37.38;;
56130;SDS011;42000;44.774;20.506;2022-12-18T17:40:00;94.18;;;39.75;;
56130;SDS011;42000;44.774;20.506;2022-12-18T17:42:26;129.40;;;52.55;;
56130;SDS011;42000;44.774;20.506;2022-12-18T17:44:52;97.63;;;41.00;;
56130;SDS011;42000;44.774;20.506;2022-12-18T17:47:18;116.15;;;45.85;;
56130;SDS011;42000;44.774;20.506;2022-12-18T17:49:44;93.00;;;38.95;;
56130;SDS011;42000;44.774;20.506;2022-12-18T17:52:10;91.80;;;38.85;;
56130;SDS011;42000;44.774;20.506;2022-12-18T17:54:36;93.30;;;38.58;;
56130;SDS011;42000;44.774;20.506;2022-12-18T17:57:05;91.00;;;38.78;;
56130;SDS011;42000;44.774;20.506;2022-12-18T17:59:31;99.45;;;42.20;;
56130;SDS011;42000;44.774;20.506;2022-12-18T18:01:57;96.90;;;40.65;;
56130;SDS011;42000;44.774;20.506;2022-12-18T18:04:23;96.70;;;41.20;;
56130;SDS011;42000;44.774;20.506;2022-12-18T18:06:49;104.13;;;44.25;;
56130;SDS011;42000;44.774;20.506;2022-12-18T18:09:15;115.25;;;46.65;;
56130;SDS011;42000;44.774;20.506;2022-12-18T18:11:41;107.70;;;46.22;;
56130;SDS011;42000;44.774;20.506;2022-12-18T18:14:26;109.15;;;45.63;;
56130;SDS011;42000;44.774;20.506;2022-12-18T18:16:52;156.95;;;60.53;;
56130;SDS011;42000;44.774;20.506;2022-12-18T18:19:22;93.13;;;39.28;;
56130;SDS011;42000;44.774;20.506;2022-12-18T18:21:49;125.18;;;52.80;;
56130;SDS011;42000;44.774;20.506;2022-12-18T18:24:17;94.30;;;41.03;;
56130;SDS011;42000;44.774;20.506;2022-12-18T18:26:43;153.13;;;68.93;;
56130;SDS011;42000;44.774;20.506;2022-12-18T18:29:16;97.05;;;39.75;;
56130;SDS011;42000;44.774;20.506;2022-12-18T18:31:42;95.22;;;41.10;;
56130;SDS011;42000;44.774;20.506;2022-12-18T18:34:15;87.47;;;37.65;;
56130;SDS011;42000;44.774;20.506;2022-12-18T18:36:42;100.40;;;42.97;;
56130;SDS011;42000;44.774;20.506;2022-12-18T18:39:09;102.60;;;42.88;;
56130;SDS011;42000;44.774;20.506;2022-12-18T18:41:35;100.15;;;41.05;;
56130;SDS011;42000;44.774;20.506;2022-12-18T18:44:01;98.45;;;41.30;;
56130;SDS011;42000;44.774;20.506;2022-12-18T18:46:27;102.15;;;42.17;;
56130;SDS011;42000;44.774;20.506;2022-12-18T18:48:54;103.40;;;43.28;;
56130;SDS011;42000;44.774;20.506;2022-12-18T18:51:20;97.82;;;39.83;;
56130;SDS011;42000;44.774;20.506;2022-12-18T18:53:46;98.80;;;40.70;;
56130;SDS011;42000;44.774;20.506;2022-12-18T18:56:13;104.30;;;42.85;;
56130;SDS011;42000;44.774;20.506;2022-12-18T18:58:40;91.68;;;38.83;;
56130;SDS011;42000;44.774;20.506;2022-12-18T19:01:07;98.13;;;41.28;;
56130;SDS011;42000;44.774;20.506;2022-12-18T19:03:35;105.43;;;42.35;;
56130;SDS011;42000;44.774;20.506;2022-12-18T19:06:01;104.68;;;42.30;;
56130;SDS011;42000;44.774;20.506;2022-12-18T19:08:29;106.70;;;44.67;;
56130;SDS011;42000;44.774;20.506;2022-12-18T19:10:56;110.00;;;45.42;;
56130;SDS011;42000;44.774;20.506;2022-12-18T19:13:24;102.97;;;41.63;;
56130;SDS011;42000;44.774;20.506;2022-12-18T19:15:52;100.22;;;40.92;;
56130;SDS011;42000;44.774;20.506;2022-12-18T19:18:18;114.47;;;45.35;;
56130;SDS011;42000;44.774;20.506;2022-12-18T19:20:52;111.60;;;45.63;;
56130;SDS011;42000;44.774;20.506;2022-12-18T19:23:18;107.13;;;44.53;;
56130;SDS011;42000;44.774;20.506;2022-12-18T19:25:44;104.03;;;40.70;;
56130;SDS011;42000;44.774;20.506;2022-12-18T19:28:10;111.93;;;44.05;;
56130;SDS011;42000;44.774;20.506;2022-12-18T19:30:37;110.57;;;43.97;;
56130;SDS011;42000;44.774;20.506;2022-12-18T19:33:03;117.18;;;46.15;;
56130;SDS011;42000;44.774;20.506;2022-12-18T19:35:30;108.88;;;46.28;;
56130;SDS011;42000;44.774;20.506;2022-12-18T19:37:56;118.63;;;49.83;;
56130;SDS011;42000;44.774;20.506;2022-12-18T19:40:22;129.95;;;50.53;;
56130;SDS011;42000;44.774;20.506;2022-12-18T19:42:48;137.30;;;59.70;;
56130;SDS011;42000;44.774;20.506;2022-12-18T19:45:14;126.03;;;52.67;;
56130;SDS011;42000;44.774;20.506;2022-12-18T19:47:40;118.90;;;50.42;;
56130;SDS011;42000;44.774;20.506;2022-12-18T19:50:06;127.47;;;53.10;;
56130;SDS011;42000;44.774;20.506;2022-12-18T19:52:33;129.07;;;54.55;;
56130;SDS011;42000;44.774;20.506;2022-12-18T19:54:59;129.88;;;54.20;;
56130;SDS011;42000;44.774;20.506;2022-12-18T19:57:25;132.88;;;56.22;;
56130;SDS011;42000;44.774;20.506;2022-12-18T19:59:51;142.90;;;57.22;;
56130;SDS011;42000;44.774;20.506;2022-12-18T20:02:23;137.25;;;57.35;;
56130;SDS011;42000;44.774;20.506;2022-12-18T20:04:49;130.18;;;56.10;;
56130;SDS011;42000;44.774;20.506;2022-12-18T20:07:15;136.18;;;56.97;;
56130;SDS011;42000;44.774;20.506;2022-12-18T20:09:41;131.50;;;52.85;;
56130;SDS011;42000;44.774;20.506;2022-12-18T20:12:07;132.15;;;54.88;;
56130;SDS011;42000;44.774;20.506;2022-12-18T20:14:45;128.15;;;53.67;;
56130;SDS011;42000;44.774;20.506;2022-12-18T20:17:30;129.77;;;53.33;;
56130;SDS011;42000;44.774;20.506;2022-12-18T20:19:56;131.23;;;53.78;;
56130;SDS011;42000;44.774;20.506;2022-12-18T20:25:10;135.23;;;55.65;;
56130;SDS011;42000;44.774;20.506;2022-12-18T20:27:54;133.55;;;55.28;;
56130;SDS011;42000;44.774;20.506;2022-12-18T20:30:38;131.88;;;53.50;;
56130;SDS011;42000;44.774;20.506;2022-12-18T20:33:13;135.98;;;57.17;;
56130;SDS011;42000;44.774;20.506;2022-12-18T20:35:48;131.57;;;55.30;;
56130;SDS011;42000;44.774;20.506;2022-12-18T20:38:27;137.85;;;56.67;;
56130;SDS011;42000;44.774;20.506;2022-12-18T20:41:10;137.82;;;57.67;;
56130;SDS011;42000;44.774;20.506;2022-12-18T20:46:56;144.38;;;64.60;;
56130;SDS011;42000;44.774;20.506;2022-12-18T20:49:26;143.43;;;62.15;;
56130;SDS011;42000;44.774;20.506;2022-12-18T20:51:54;153.20;;;63.47;;
56130;SDS011;42000;44.774;20.506;2022-12-18T20:54:21;152.10;;;64.68;;
56130;SDS011;42000;44.774;20.506;2022-12-18T20:56:47;149.32;;;62.38;;
56130;SDS011;42000;44.774;20.506;2022-12-18T20:59:13;135.93;;;59.50;;
56130;SDS011;42000;44.774;20.506;2022-12-18T21:01:39;146.38;;;57.83;;
56130;SDS011;42000;44.774;20.506;2022-12-18T21:04:07;150.15;;;61.25;;
56130;SDS011;42000;44.774;20.506;2022-12-18T21:06:33;148.73;;;59.70;;
56130;SDS011;42000;44.774;20.506;2022-12-18T21:08:59;141.18;;;59.13;;
56130;SDS011;42000;44.774;20.506;2022-12-18T21:14:20;138.20;;;58.95;;
56130;SDS011;42000;44.774;20.506;2022-12-18T21:16:47;138.70;;;58.08;;
56130;SDS011;42000;44.774;20.506;2022-12-18T21:19:15;141.40;;;59.72;;
56130;SDS011;42000;44.774;20.506;2022-12-18T21:21:41;149.02;;;62.70;;
56130;SDS011;42000;44.774;20.506;2022-12-18T21:24:08;152.27;;;61.97;;
56130;SDS011;42000;44.774;20.506;2022-12-18T21:26:34;146.30;;;59.92;;
56130;SDS011;42000;44.774;20.506;2022-12-18T21:29:02;134.80;;;57.13;;
56130;SDS011;42000;44.774;20.506;2022-12-18T21:31:29;138.90;;;58.40;;
56130;SDS011;42000;44.774;20.506;2022-12-18T21:33:56;139.63;;;56.33;;
56130;SDS011;42000;44.774;20.506;2022-12-18T21:36:22;137.02;;;57.47;;
56130;SDS011;42000;44.774;20.506;2022-12-18T21:38:48;128.00;;;54.60;;
56130;SDS011;42000;44.774;20.506;2022-12-18T21:41:14;132.40;;;56.55;;
56130;SDS011;42000;44.774;20.506;2022-12-18T21:43:59;133.57;;;54.78;;
56130;SDS011;42000;44.774;20.506;2022-12-18T21:48:58;135.77;;;52.88;;
56130;SDS011;42000;44.774;20.506;2022-12-18T21:51:24;130.77;;;54.72;;
56130;SDS011;42000;44.774;20.506;2022-12-18T21:53:50;132.48;;;52.50;;
56130;SDS011;42000;44.774;20.506;2022-12-18T21:56:16;125.40;;;51.00;;
56130;SDS011;42000;44.774;20.506;2022-12-18T21:58:42;135.10;;;56.60;;
56130;SDS011;42000;44.774;20.506;2022-12-18T22:01:08;183.98;;;72.45;;
56130;SDS011;42000;44.774;20.506;2022-12-18T22:03:34;179.68;;;75.18;;
56130;SDS011;42000;44.774;20.506;2022-12-18T22:06:00;132.70;;;59.00;;
56130;SDS011;42000;44.774;20.506;2022-12-18T22:08:26;132.23;;;57.70;;
56130;SDS011;42000;44.774;20.506;2022-12-18T22:10:52;142.27;;;59.92;;
56130;SDS011;42000;44.774;20.506;2022-12-18T22:13:18;136.20;;;57.33;;
56130;SDS011;42000;44.774;20.506;2022-12-18T22:15:44;132.25;;;55.47;;
56130;SDS011;42000;44.774;20.506;2022-12-18T22:18:10;130.80;;;56.15;;
56130;SDS011;42000;44.774;20.506;2022-12-18T22:20:36;139.13;;;56.78;;
56130;SDS011;42000;44.774;20.506;2022-12-18T22:23:02;133.55;;;56.70;;
56130;SDS011;42000;44.774;20.506;2022-12-18T22:25:28;141.93;;;61.50;;
56130;SDS011;42000;44.774;20.506;2022-12-18T22:27:54;126.63;;;52.22;;
56130;SDS011;42000;44.774;20.506;2022-12-18T22:30:39;131.45;;;52.17;;
56130;SDS011;42000;44.774;20.506;2022-12-18T22:33:05;132.07;;;53.70;;
56130;SDS011;42000;44.774;20.506;2022-12-18T22:35:31;131.80;;;54.13;;